Satellite Precipitation Estimates (TXUS20 KWBC)
Issued by NWS

Home | Current Version | Previous Version | Text Only | Print | Product List | Glossary On
Versions: 1 2 3 4 5 6 7
000
SPTD31 TTPP 221424 RRA
SPECI
TTPP 221420Z 09009KT 9999 FEW010 SCT015 26/24 Q1016 NOSIG=



USA.gov is the U.S. government's official web portal to all federal, state and local government web resources and services.